• Join FlightAware (Why Join?)
  • Login
  • US Flag 
11:28AM EDT


 

Airport Tracker/Info


-or-


 

Live Flight TrackerFlight Track Log ✈ EJA831 ✈ 28-Jun-2013 ✈ KGSO - KCTJ

Flight Track Log - Related Links

Times and Time Zones

All times are in EDT time to prevent confusion due to time zone crossing. See the EJA831 flight status page for this flight to view local times or setup timezone preferences in your user account.

Time Position Orientation Groundspeed Altitude Reporting Facility
EDT Latitude Longitude Course Direction KTS MPH feet Rate Location/Type
06:56AM 36.0175 -79.9544 202° Southwest 259 298 4,900  Level Atlanta Center
06:57AM 35.9581 -79.9856 203° Southwest 264 304 8,600 3,480 Climbing Atlanta Center
06:58AM 35.8964 -80.0169 202° Southwest 264 304 11,900 1,860 Climbing Atlanta Center
06:59AM 35.8208 -80.0642 207° Southwest 287 330 12,400 1,620 Climbing Atlanta Center
07:00AM 35.7389 -80.1092 204° Southwest 314 361 15,200 2,580 Climbing Atlanta Center
07:01AM 35.5388 -80.2140 202° Southwest  Level FlightAware Approximate
07:01AM 35.6550 -80.1642 208° Southwest 334 384 17,600  Level Atlanta Center
07:02AM 35.6161 -80.2581 243° Southwest 318 366 20,100 2,400 Climbing Atlanta Center
07:03AM 35.5819 -80.3694 249° West 318 366 22,500 1,440 Climbing Atlanta Center
07:04AM 35.5517 -80.4753 251° West 329 379 23,000 1,020 Climbing Atlanta Center
07:05AM 35.5197 -80.5917 251° West 347 399 24,600 1,560 Climbing Atlanta Center
07:06AM 35.4872 -80.7000 250° West 347 399 26,200 1,560 Climbing Atlanta Center
07:07AM 35.4547 -80.8111 250° West 352 405 27,800 1,620 Climbing Atlanta Center
07:08AM 35.4219 -80.9219 250° West 352 405 29,500 1,080 Climbing Atlanta Center
07:09AM 35.3853 -81.0403 249° West 359 413 30,000 240 Climbing Atlanta Center
07:10AM 35.3525 -81.1536 251° West 375 432 30,000  Level Atlanta Center
07:11AM 35.3158 -81.2822 251° West 396 456 30,000  Level Atlanta Center
07:12AM 35.2769 -81.4133 250° West 411 473 30,000  Level Atlanta Center
07:13AM 35.2342 -81.5544 250° West 411 473 30,000  Level Atlanta Center
07:14AM 35.1969 -81.6853 251° West 411 473 30,000  Level Atlanta Center
07:15AM 35.1578 -81.8158 250° West 411 473 30,000  Level Atlanta Center
07:16AM 35.1161 -81.9439 248° West 411 473 30,000  Level Atlanta Center
07:17AM 35.0786 -82.0744 251° West 406 467 30,000  Level Atlanta Center
07:18AM 35.0411 -82.1994 250° West 412 474 30,000  Level Atlanta Center
07:19AM 35.0031 -82.3094 247° West 407 468 30,000 -480 Level Atlanta Center
07:20AM 34.9650 -82.4394 250° West 407 468 29,100 -1,320 Descending Atlanta Center
07:21AM 34.9250 -82.5644 249° West 407 468 27,400 -1,740 Descending Atlanta Center
07:22AM 34.8867 -82.6942 250° West 407 468 25,700 -2,160 Descending Atlanta Center
07:23AM 34.8503 -82.8086 249° West 392 451 23,100 -2,400 Descending Atlanta Center
07:24AM 34.8056 -82.9308 246° West 379 436 21,000 -1,080 Descending Atlanta Center
07:25AM 34.7731 -83.0375 250° West 351 404 21,000  Level Atlanta Center
07:26AM 34.7553 -83.1589 260° West 351 404 21,000  Level Atlanta Center
07:27AM 34.7289 -83.2831 256° West 375 432 21,000  Level Atlanta Center
07:28AM 34.7047 -83.4072 257° West 375 432 21,000  Level Atlanta Center
07:29AM 34.6822 -83.5261 257° West 370 426 21,000  Level Atlanta Center
07:30AM 34.6556 -83.6500 255° West 370 426 21,000 -180 Level Atlanta Center
07:31AM 34.6308 -83.7686 256° West 371 427 20,700 -1,200 Descending Atlanta Center
07:32AM 34.6081 -83.8900 257° West 366 421 18,700 -1,860 Descending Atlanta Center
07:33AM 34.5872 -83.9933 256° West 360 414 17,000 -1,860 Descending Atlanta Center
07:34AM 34.5644 -84.1094 257° West 355 409 15,000 -2,040 Descending Atlanta Center
07:35AM 34.5392 -84.2203 255° West 355 409 13,000 -2,040 Descending Atlanta Center
07:36AM 34.5181 -84.3286 257° West 337 388 11,000 -1,560 Descending Atlanta Center
07:37AM 34.4908 -84.4344 253° West 337 388 9,900 -600 Descending Atlanta Center
07:38AM 34.4111 -84.4994 214° Southwest 329 379 9,900  Level Atlanta Center
07:39AM 34.3294 -84.5619 212° Southwest 346 398 9,900  Level Atlanta Center
07:40AM 34.2478 -84.6269 213° Southwest 354 407 9,900 -840 Level Atlanta Center
07:41AM 34.1767 -84.6792 211° Southwest 327 376 8,300 -1,680 Descending Atlanta Center
07:42AM 34.1075 -84.7336 213° Southwest 307 353 6,600 -1,200 Descending Atlanta Center
07:43AM 34.0425 -84.7833 212° Southwest 293 337 5,900 -360 Descending Atlanta Center
07:44AM 33.9753 -84.8328 211° Southwest 293 337 5,900  Level Atlanta Center
07:45AM 33.9061 -84.8922 216° Southwest 288 331 5,900  Level Atlanta Center
07:46AM 33.8286 -84.9164 195° South 281 323 5,900  Level Atlanta Center
07:47AM 33.7533 -84.9333 191° South 286 329 5,900 -720 Level Atlanta Center
07:49AM 33.6333 -84.9500 187° South 212 244 3,900 -720 Descending Atlanta TRACON
07:50AM 33.5833 -84.9667 196° South 222 255 3,900  Level Atlanta TRACON
07:51AM 33.5167 -84.9833 192° South 214 246 3,900  Level Atlanta TRACON
07:52AM 33.4833 -85.0167 220° Southwest 170 196 3,900 -180 Level Atlanta TRACON
07:53AM 33.4833 -85.0667 270° West 163 188 3,600 -480 Descending Atlanta TRACON
07:54AM 33.5000 -85.1000 301° West 163 188 3,000 -420 Descending Atlanta TRACON
07:55AM 33.5333 -85.1167 337° Northwest 129 148 2,900 -480 Descending Atlanta TRACON
07:56AM 33.5667 -85.1333 337° Northwest 133 153 2,100 -660 Descending Atlanta TRACON
07:57AM 33.6000 -85.1333 360° North 110 127 1,600 -540 Descending Atlanta TRACON